Wetterdaten: Woche 16.10.17 - 22.10.17 (KW42)
Datum Zeit Temp. A. Feuchte A. Luftdruck Regen Wind Richtung Taupunkt Windchill Windben
16.10.2017 00:00 7,7 C 94 % 1026,2 hPa 0,0 l/m 0,0 km/h (0 Bft) O-NO 6,8 C 7,7 C 0,0 km/h (0 Bft)
16.10.2017 01:00 7,3 C 95 % 1026,3 hPa 0,0 l/m 0,2 km/h (0 Bft) O-NO 6,6 C 7,3 C 0,8 km/h (0 Bft)
16.10.2017 02:00 6,4 C 95 % 1026,5 hPa 0,0 l/m 0,0 km/h (0 Bft) O-NO 5,7 C 6,4 C 0,1 km/h (0 Bft)
16.10.2017 03:00 6,0 C 96 % 1026,3 hPa 0,0 l/m 0,0 km/h (0 Bft) O-NO 5,4 C 6,0 C 0,0 km/h (0 Bft)
16.10.2017 04:00 5,9 C 96 % 1026,1 hPa 0,0 l/m 0,0 km/h (0 Bft) O-NO 5,4 C 5,9 C 0,3 km/h (0 Bft)
16.10.2017 05:00 5,4 C 96 % 1026,0 hPa 0,0 l/m 0,0 km/h (0 Bft) O-NO 4,8 C 5,4 C 0,0 km/h (0 Bft)
16.10.2017 06:00 5,1 C 96 % 1026,0 hPa 0,3 l/m 0,0 km/h (0 Bft) O-NO 4,5 C 5,1 C 0,0 km/h (0 Bft)
16.10.2017 07:00 4,8 C 97 % 1025,8 hPa 0,0 l/m 0,0 km/h (0 Bft) O-NO 4,3 C 4,8 C 0,0 km/h (0 Bft)
16.10.2017 08:00 5,1 C 97 % 1026,0 hPa 0,0 l/m 0,0 km/h (0 Bft) O-SO 4,7 C 5,1 C 0,0 km/h (0 Bft)
16.10.2017 09:00 8,7 C 97 % 1026,2 hPa 0,0 l/m 0,0 km/h (0 Bft) O-SO 8,3 C 8,7 C 0,0 km/h (0 Bft)
16.10.2017 10:00 13,3 C 87 % 1026,2 hPa 0,0 l/m 0,0 km/h (0 Bft) O-SO 11,1 C 13,3 C 0,0 km/h (0 Bft)
16.10.2017 11:00 19,1 C 62 % 1026,0 hPa 0,0 l/m 0,9 km/h (0 Bft) O-SO 11,5 C 19,1 C 2,3 km/h (1 Bft)
16.10.2017 12:00 21,6 C 51 % 1025,8 hPa 0,0 l/m 1,7 km/h (1 Bft) NO 10,9 C 21,6 C 4,5 km/h (1 Bft)
16.10.2017 13:00 24,3 C 40 % 1025,4 hPa 0,0 l/m 2,0 km/h (1 Bft) NO 9,6 C 24,3 C 5,2 km/h (1 Bft)
16.10.2017 14:00 26,1 C 33 % 1025,0 hPa 0,0 l/m 1,6 km/h (1 Bft) O 8,4 C 26,1 C 4,8 km/h (1 Bft)
16.10.2017 15:00 26,7 C 30 % 1024,5 hPa 0,0 l/m 1,8 km/h (1 Bft) O-NO 7,9 C 26,7 C 4,8 km/h (1 Bft)
16.10.2017 16:00 26,1 C 43 % 1024,2 hPa 0,0 l/m 0,3 km/h (0 Bft) O-NO 12,3 C 26,1 C 1,9 km/h (1 Bft)
16.10.2017 17:00 23,5 C 50 % 1024,0 hPa 0,0 l/m 0,3 km/h (0 Bft) O-NO 12,4 C 23,5 C 1,3 km/h (1 Bft)
16.10.2017 18:00 18,1 C 67 % 1024,2 hPa 0,0 l/m 0,2 km/h (0 Bft) O-NO 11,8 C 18,1 C 1,1 km/h (0 Bft)
16.10.2017 19:00 13,7 C 79 % 1024,6 hPa 0,0 l/m 0,0 km/h (0 Bft) SO 10,1 C 13,7 C 0,5 km/h (0 Bft)
16.10.2017 20:00 11,3 C 85 % 1025,0 hPa 0,0 l/m 0,1 km/h (0 Bft) SO 8,9 C 11,3 C 0,5 km/h (0 Bft)
16.10.2017 21:00 9,7 C 89 % 1025,0 hPa 0,0 l/m 0,0 km/h (0 Bft) SO 8,0 C 9,7 C 0,5 km/h (0 Bft)
16.10.2017 22:00 8,6 C 91 % 1025,1 hPa 0,0 l/m 0,0 km/h (0 Bft) SO 7,2 C 8,6 C 0,0 km/h (0 Bft)
16.10.2017 23:00 7,6 C 92 % 1025,1 hPa 0,0 l/m 0,0 km/h (0 Bft) SO 6,5 C 7,6 C 0,0 km/h (0 Bft)
17.10.2017 00:00 7,0 C 93 % 1025,0 hPa 0,0 l/m 0,0 km/h (0 Bft) SO 5,9 C 7,0 C 0,0 km/h (0 Bft)
17.10.2017 01:00 6,1 C 94 % 1024,9 hPa 0,0 l/m 0,0 km/h (0 Bft) SO 5,2 C 6,1 C 0,0 km/h (0 Bft)
17.10.2017 02:00 5,5 C 95 % 1024,8 hPa 0,0 l/m 0,0 km/h (0 Bft) SO 4,8 C 5,5 C 0,4 km/h (0 Bft)
17.10.2017 03:00 4,9 C 95 % 1024,4 hPa 0,0 l/m 0,0 km/h (0 Bft) SO 4,1 C 4,9 C 0,0 km/h (0 Bft)
17.10.2017 04:00 4,4 C 95 % 1024,1 hPa 0,0 l/m 0,0 km/h (0 Bft) SO 3,7 C 4,4 C 0,1 km/h (0 Bft)
17.10.2017 05:00 4,1 C 96 % 1024,0 hPa 0,0 l/m 0,0 km/h (0 Bft) SO 3,4 C 4,1 C 0,1 km/h (0 Bft)
17.10.2017 06:00 3,5 C 96 % 1024,1 hPa 0,0 l/m 0,0 km/h (0 Bft) SO 2,9 C 3,5 C 0,1 km/h (0 Bft)
17.10.2017 07:00 3,3 C 96 % 1024,0 hPa 0,0 l/m 0,0 km/h (0 Bft) SO 2,7 C 3,3 C 0,0 km/h (0 Bft)
17.10.2017 08:00 3,9 C 97 % 1024,1 hPa 0,0 l/m 0,0 km/h (0 Bft) SO 3,5 C 3,9 C 0,0 km/h (0 Bft)
17.10.2017 09:00 7,2 C 94 % 1024,2 hPa 0,0 l/m 0,5 km/h (0 Bft) SO 6,2 C 7,2 C 1,3 km/h (1 Bft)
17.10.2017 10:00 11,7 C 80 % 1024,0 hPa 0,0 l/m 0,1 km/h (0 Bft) SO 8,3 C 11,7 C 1,2 km/h (1 Bft)
17.10.2017 11:00 17,6 C 62 % 1023,2 hPa 0,0 l/m 0,2 km/h (0 Bft) SO 10,3 C 17,6 C 1,0 km/h (0 Bft)
17.10.2017 12:00 20,6 C 44 % 1022,7 hPa 0,0 l/m 2,4 km/h (1 Bft) N-NO 7,6 C 20,6 C 6,4 km/h (2 Bft)
17.10.2017 13:00 22,8 C 33 % 1021,9 hPa 0,0 l/m 2,6 km/h (1 Bft) NO 5,8 C 22,8 C 6,4 km/h (2 Bft)
17.10.2017 14:00 24,2 C 33 % 1020,9 hPa 0,0 l/m 1,7 km/h (1 Bft) NO 6,8 C 24,2 C 5,1 km/h (1 Bft)
17.10.2017 15:00 24,5 C 34 % 1020,1 hPa 0,0 l/m 1,4 km/h (1 Bft) N-NO 7,5 C 24,5 C 4,0 km/h (1 Bft)
17.10.2017 16:00 24,8 C 39 % 1019,5 hPa 0,0 l/m 0,9 km/h (0 Bft) NO 9,8 C 24,8 C 3,5 km/h (1 Bft)
17.10.2017 17:00 23,2 C 48 % 1019,1 hPa 0,0 l/m 0,0 km/h (0 Bft) NO 11,5 C 23,2 C 0,0 km/h (0 Bft)
17.10.2017 18:00 17,2 C 65 % 1019,1 hPa 0,0 l/m 0,0 km/h (0 Bft) NO 10,4 C 17,2 C 0,0 km/h (0 Bft)
17.10.2017 19:00 12,6 C 78 % 1019,3 hPa 0,0 l/m 0,0 km/h (0 Bft) NO 8,8 C 12,6 C 0,0 km/h (0 Bft)
17.10.2017 20:00 10,0 C 84 % 1019,4 hPa 0,0 l/m 0,0 km/h (0 Bft) NO 7,4 C 10,0 C 0,0 km/h (0 Bft)
17.10.2017 21:00 8,3 C 88 % 1019,3 hPa 0,0 l/m 0,0 km/h (0 Bft) NO 6,4 C 8,3 C 0,0 km/h (0 Bft)
17.10.2017 22:00 7,4 C 90 % 1019,2 hPa 0,0 l/m 0,0 km/h (0 Bft) NO 5,9 C 7,4 C 0,0 km/h (0 Bft)
17.10.2017 23:00 6,7 C 92 % 1018,9 hPa 0,0 l/m 0,0 km/h (0 Bft) NO 5,4 C 6,7 C 0,0 km/h (0 Bft)
18.10.2017 00:00 5,9 C 92 % 1018,7 hPa 0,0 l/m 0,0 km/h (0 Bft) NO 4,7 C 5,9 C 0,0 km/h (0 Bft)
18.10.2017 01:00 5,1 C 94 % 1018,4 hPa 0,0 l/m 0,0 km/h (0 Bft) NO 4,1 C 5,1 C 0,0 km/h (0 Bft)
18.10.2017 02:00 4,4 C 94 % 1018,1 hPa 0,0 l/m 0,0 km/h (0 Bft) NO 3,5 C 4,4 C 0,0 km/h (0 Bft)
18.10.2017 03:00 3,8 C 95 % 1017,8 hPa 0,0 l/m 0,0 km/h (0 Bft) NO 3,1 C 3,8 C 0,0 km/h (0 Bft)
18.10.2017 04:00 3,2 C 95 % 1017,5 hPa 0,0 l/m 0,0 km/h (0 Bft) NO 2,5 C 3,2 C 0,0 km/h (0 Bft)
18.10.2017 05:00 2,8 C 96 % 1017,3 hPa 0,0 l/m 0,0 km/h (0 Bft) NO 2,2 C 2,8 C 0,0 km/h (0 Bft)
18.10.2017 06:00 2,7 C 96 % 1017,1 hPa 0,0 l/m 0,0 km/h (0 Bft) NO 2,1 C 2,7 C 0,0 km/h (0 Bft)
18.10.2017 07:00 2,6 C 96 % 1016,8 hPa 0,3 l/m 0,0 km/h (0 Bft) NO 2,0 C 2,6 C 0,0 km/h (0 Bft)
18.10.2017 08:00 2,7 C 96 % 1016,9 hPa 0,0 l/m 0,0 km/h (0 Bft) NO 2,1 C 2,7 C 0,0 km/h (0 Bft)
18.10.2017 09:00 5,6 C 96 % 1017,0 hPa 0,0 l/m 0,0 km/h (0 Bft) NO 4,9 C 5,6 C 0,0 km/h (0 Bft)
18.10.2017 10:00 10,3 C 80 % 1016,6 hPa 0,0 l/m 0,5 km/h (0 Bft) NO 6,9 C 10,3 C 1,5 km/h (1 Bft)
18.10.2017 11:00 16,1 C 65 % 1016,2 hPa 0,0 l/m 1,3 km/h (1 Bft) N-NW 9,4 C 16,1 C 3,0 km/h (1 Bft)
18.10.2017 12:00 19,1 C 48 % 1015,9 hPa 0,0 l/m 1,3 km/h (1 Bft) N 7,7 C 19,1 C 3,1 km/h (1 Bft)
18.10.2017 13:00 20,6 C 38 % 1015,3 hPa 0,0 l/m 2,9 km/h (1 Bft) NW 5,9 C 20,6 C 8,7 km/h (2 Bft)
18.10.2017 14:00 21,6 C 35 % 1014,8 hPa 0,0 l/m 2,4 km/h (1 Bft) NW 5,4 C 21,6 C 6,8 km/h (2 Bft)
18.10.2017 15:00 22,0 C 36 % 1014,4 hPa 0,0 l/m 1,8 km/h (1 Bft) N-NW 6,1 C 22,0 C 4,8 km/h (1 Bft)
18.10.2017 16:00 21,5 C 38 % 1014,0 hPa 0,0 l/m 1,6 km/h (1 Bft) NW 6,5 C 21,5 C 4,8 km/h (1 Bft)
18.10.2017 17:00 19,7 C 49 % 1014,1 hPa 0,0 l/m 0,3 km/h (0 Bft) N 8,6 C 19,7 C 1,8 km/h (1 Bft)
18.10.2017 18:00 15,3 C 64 % 1014,4 hPa 0,0 l/m 0,0 km/h (0 Bft) N 8,5 C 15,3 C 0,0 km/h (0 Bft)
18.10.2017 19:00 11,3 C 79 % 1014,8 hPa 0,0 l/m 0,0 km/h (0 Bft) N 7,8 C 11,3 C 0,0 km/h (0 Bft)
18.10.2017 20:00 9,0 C 86 % 1014,9 hPa 0,0 l/m 0,0 km/h (0 Bft) N 6,8 C 9,0 C 0,0 km/h (0 Bft)
18.10.2017 21:00 7,4 C 89 % 1015,2 hPa 0,0 l/m 0,0 km/h (0 Bft) N-NO 5,8 C 7,4 C 0,0 km/h (0 Bft)
18.10.2017 22:00 6,6 C 92 % 1015,1 hPa 0,0 l/m 0,0 km/h (0 Bft) N-NO 5,3 C 6,6 C 0,0 km/h (0 Bft)
18.10.2017 23:00 5,7 C 93 % 1015,4 hPa 0,0 l/m 0,0 km/h (0 Bft) NO 4,6 C 5,7 C 0,0 km/h (0 Bft)
19.10.2017 00:00 5,2 C 93 % 1015,4 hPa 0,0 l/m 0,0 km/h (0 Bft) NO 4,2 C 5,2 C 0,0 km/h (0 Bft)
19.10.2017 01:00 4,7 C 95 % 1015,2 hPa 0,0 l/m 0,0 km/h (0 Bft) NO 3,9 C 4,7 C 0,0 km/h (0 Bft)
19.10.2017 02:00 4,4 C 94 % 1015,0 hPa 0,0 l/m 0,0 km/h (0 Bft) NO 3,6 C 4,4 C 0,0 km/h (0 Bft)
19.10.2017 03:00 4,0 C 95 % 1014,7 hPa 0,0 l/m 0,0 km/h (0 Bft) NO 3,3 C 4,0 C 0,0 km/h (0 Bft)
19.10.2017 04:00 3,9 C 95 % 1014,5 hPa 0,0 l/m 0,0 km/h (0 Bft) NO 3,1 C 3,9 C 0,0 km/h (0 Bft)
19.10.2017 05:00 3,6 C 96 % 1014,4 hPa 0,0 l/m 0,0 km/h (0 Bft) NO 3,0 C 3,6 C 0,0 km/h (0 Bft)
19.10.2017 06:00 3,6 C 96 % 1014,3 hPa 0,0 l/m 0,0 km/h (0 Bft) NO 3,0 C 3,6 C 0,0 km/h (0 Bft)
19.10.2017 07:00 4,4 C 97 % 1014,1 hPa 0,0 l/m 0,0 km/h (0 Bft) NO 4,0 C 4,4 C 0,0 km/h (0 Bft)
19.10.2017 08:00 5,2 C 97 % 1014,3 hPa 0,0 l/m 0,0 km/h (0 Bft) NO 4,8 C 5,2 C 0,0 km/h (0 Bft)
19.10.2017 09:00 6,5 C 97 % 1014,8 hPa 0,0 l/m 0,0 km/h (0 Bft) NO 6,1 C 6,5 C 0,0 km/h (0 Bft)
19.10.2017 10:00 8,2 C 96 % 1014,9 hPa 0,0 l/m 0,0 km/h (0 Bft) NO 7,7 C 8,2 C 0,0 km/h (0 Bft)
19.10.2017 11:00 11,2 C 91 % 1015,0 hPa 0,0 l/m 0,3 km/h (0 Bft) N-NW 9,7 C 11,2 C 1,2 km/h (1 Bft)
19.10.2017 12:00 13,7 C 81 % 1015,1 hPa 0,0 l/m 0,4 km/h (0 Bft) N-NW 10,5 C 13,7 C 1,3 km/h (1 Bft)
19.10.2017 13:00 17,7 C 66 % 1014,5 hPa 0,0 l/m 0,5 km/h (0 Bft) NW 11,1 C 17,7 C 2,8 km/h (1 Bft)
19.10.2017 14:00 22,0 C 45 % 1013,5 hPa 0,0 l/m 1,4 km/h (1 Bft) NO 9,5 C 22,0 C 4,9 km/h (1 Bft)
19.10.2017 15:00 23,2 C 36 % 1013,1 hPa 0,0 l/m 3,6 km/h (1 Bft) O 7,2 C 23,2 C 8,2 km/h (2 Bft)
19.10.2017 16:00 23,0 C 39 % 1012,9 hPa 0,0 l/m 1,5 km/h (1 Bft) O-NO 7,9 C 23,0 C 4,5 km/h (1 Bft)
19.10.2017 17:00 20,8 C 51 % 1012,6 hPa 0,0 l/m 0,2 km/h (0 Bft) O-NO 10,2 C 20,8 C 0,8 km/h (0 Bft)
19.10.2017 18:00 15,6 C 66 % 1012,8 hPa 0,0 l/m 0,0 km/h (0 Bft) O-NO 9,1 C 15,6 C 0,0 km/h (0 Bft)
19.10.2017 19:00 11,5 C 78 % 1013,3 hPa 0,0 l/m 0,0 km/h (0 Bft) O-NO 7,9 C 11,5 C 0,1 km/h (0 Bft)
19.10.2017 20:00 9,5 C 84 % 1013,1 hPa 0,0 l/m 0,0 km/h (0 Bft) O-NO 7,0 C 9,5 C 0,0 km/h (0 Bft)
19.10.2017 21:00 8,9 C 87 % 1013,4 hPa 0,0 l/m 0,0 km/h (0 Bft) O-NO 6,8 C 8,9 C 0,3 km/h (0 Bft)
19.10.2017 22:00 8,8 C 87 % 1013,6 hPa 0,0 l/m 0,0 km/h (0 Bft) O-NO 6,7 C 8,8 C 0,0 km/h (0 Bft)
19.10.2017 23:00 7,6 C 90 % 1013,3 hPa 0,0 l/m 0,0 km/h (0 Bft) O-NO 6,1 C 7,6 C 0,0 km/h (0 Bft)
20.10.2017 00:00 7,1 C 91 % 1013,2 hPa 0,0 l/m 0,0 km/h (0 Bft) O-NO 5,8 C 7,1 C 0,2 km/h (0 Bft)
20.10.2017 01:00 7,1 C 93 % 1013,2 hPa 0,0 l/m 0,0 km/h (0 Bft) O-NO 6,0 C 7,1 C 0,0 km/h (0 Bft)
20.10.2017 02:00 7,5 C 93 % 1013,4 hPa 0,0 l/m 0,0 km/h (0 Bft) O-NO 6,4 C 7,5 C 0,0 km/h (0 Bft)
20.10.2017 03:00 7,9 C 92 % 1013,4 hPa 0,0 l/m 0,2 km/h (0 Bft) O-NO 6,6 C 7,9 C 0,9 km/h (0 Bft)
20.10.2017 04:00 8,3 C 91 % 1013,4 hPa 0,0 l/m 0,0 km/h (0 Bft) O-NO 6,9 C 8,3 C 0,3 km/h (0 Bft)
20.10.2017 05:00 8,3 C 91 % 1013,2 hPa 0,0 l/m 0,0 km/h (0 Bft) O-NO 6,9 C 8,3 C 0,3 km/h (0 Bft)
20.10.2017 06:00 8,7 C 89 % 1013,4 hPa 0,0 l/m 0,2 km/h (0 Bft) SO 7,1 C 8,7 C 1,6 km/h (1 Bft)
20.10.2017 07:00 8,6 C 90 % 1013,4 hPa 0,0 l/m 0,0 km/h (0 Bft) SO 7,1 C 8,6 C 0,3 km/h (0 Bft)
20.10.2017 08:00 8,7 C 91 % 1013,8 hPa 0,0 l/m 0,2 km/h (0 Bft) SO 7,4 C 8,7 C 1,5 km/h (1 Bft)
20.10.2017 09:00 9,8 C 89 % 1014,2 hPa 0,0 l/m 0,1 km/h (0 Bft) S 8,0 C 9,8 C 1,3 km/h (1 Bft)
20.10.2017 10:00 12,1 C 85 % 1014,5 hPa 0,0 l/m 0,3 km/h (0 Bft) S 9,6 C 12,1 C 2,4 km/h (1 Bft)
20.10.2017 11:00 17,7 C 50 % 1014,7 hPa 0,0 l/m 10,0 km/h (2 Bft) NO 7,2 C 16,1 C 21,6 km/h (4 Bft)
20.10.2017 12:00 17,4 C 55 % 1014,9 hPa 0,0 l/m 10,9 km/h (2 Bft) O-NO 8,0 C 15,5 C 22,4 km/h (4 Bft)
20.10.2017 13:00 16,8 C 60 % 1014,8 hPa 0,0 l/m 7,6 km/h (2 Bft) O-NO 9,1 C 16,1 C 20,5 km/h (4 Bft)
20.10.2017 14:00 15,5 C 68 % 1015,3 hPa 0,0 l/m 6,6 km/h (2 Bft) NO 9,6 C 15,3 C 16,5 km/h (3 Bft)
20.10.2017 15:00 13,8 C 83 % 1015,5 hPa 0,0 l/m 5,2 km/h (1 Bft) O-NO 10,9 C 13,8 C 13,8 km/h (3 Bft)
20.10.2017 16:00 14,1 C 81 % 1015,4 hPa 0,0 l/m 4,2 km/h (1 Bft) NO 10,9 C 14,1 C 9,8 km/h (2 Bft)
20.10.2017 17:00 14,3 C 80 % 1015,6 hPa 0,0 l/m 3,8 km/h (1 Bft) O 10,8 C 14,3 C 10,2 km/h (2 Bft)
20.10.2017 18:00 14,3 C 79 % 1015,9 hPa 0,0 l/m 4,7 km/h (1 Bft) O-NO 10,7 C 14,3 C 12,8 km/h (3 Bft)
20.10.2017 19:00 14,0 C 80 % 1016,2 hPa 0,0 l/m 2,7 km/h (1 Bft) O-NO 10,6 C 14,0 C 8,8 km/h (2 Bft)
20.10.2017 20:00 13,3 C 83 % 1016,3 hPa 0,0 l/m 1,1 km/h (0 Bft) NO 10,5 C 13,3 C 4,4 km/h (1 Bft)
20.10.2017 21:00 13,3 C 84 % 1016,3 hPa 0,0 l/m 1,4 km/h (1 Bft) N-NO 10,7 C 13,3 C 4,9 km/h (1 Bft)
20.10.2017 22:00 13,2 C 85 % 1016,4 hPa 0,0 l/m 0,2 km/h (0 Bft) O-NO 10,8 C 13,2 C 1,2 km/h (1 Bft)
20.10.2017 23:00 12,4 C 88 % 1016,2 hPa 0,0 l/m 0,0 km/h (0 Bft) O-NO 10,6 C 12,4 C 0,0 km/h (0 Bft)
21.10.2017 00:00 12,2 C 91 % 1016,2 hPa 0,0 l/m 0,0 km/h (0 Bft) O-NO 10,7 C 12,2 C 0,2 km/h (0 Bft)
21.10.2017 01:00 12,1 C 93 % 1016,2 hPa 0,0 l/m 0,1 km/h (0 Bft) O-NO 11,0 C 12,1 C 1,2 km/h (1 Bft)
21.10.2017 02:00 12,5 C 93 % 1016,1 hPa 0,0 l/m 0,3 km/h (0 Bft) O-NO 11,4 C 12,5 C 2,1 km/h (1 Bft)
21.10.2017 03:00 12,9 C 91 % 1015,9 hPa 0,0 l/m 0,3 km/h (0 Bft) NO 11,6 C 12,9 C 2,1 km/h (1 Bft)
21.10.2017 04:00 12,8 C 93 % 1015,8 hPa 0,0 l/m 1,2 km/h (1 Bft) NO 11,7 C 12,8 C 4,1 km/h (1 Bft)
21.10.2017 05:00 12,7 C 94 % 1015,6 hPa 0,0 l/m 0,7 km/h (0 Bft) NO 11,7 C 12,7 C 3,5 km/h (1 Bft)
21.10.2017 06:00 12,5 C 94 % 1015,5 hPa 0,0 l/m 0,5 km/h (0 Bft) NO 11,5 C 12,5 C 2,8 km/h (1 Bft)
21.10.2017 07:00 12,3 C 93 % 1015,5 hPa 0,0 l/m 1,1 km/h (0 Bft) NO 11,2 C 12,3 C 4,7 km/h (1 Bft)
21.10.2017 08:00 11,8 C 93 % 1015,7 hPa 0,0 l/m 2,2 km/h (1 Bft) NW 10,6 C 11,8 C 6,4 km/h (2 Bft)
21.10.2017 09:00 12,3 C 91 % 1015,9 hPa 0,0 l/m 1,0 km/h (0 Bft) NO 10,9 C 12,3 C 3,7 km/h (1 Bft)
21.10.2017 10:00 14,7 C 85 % 1015,8 hPa 0,0 l/m 4,8 km/h (1 Bft) NO 12,3 C 14,6 C 13,0 km/h (3 Bft)
21.10.2017 11:00 16,3 C 79 % 1015,6 hPa 0,0 l/m 5,4 km/h (1 Bft) O 12,7 C 16,2 C 12,3 km/h (2 Bft)
21.10.2017 12:00 17,1 C 74 % 1015,5 hPa 0,0 l/m 6,3 km/h (2 Bft) O-NO 12,5 C 16,7 C 13,7 km/h (3 Bft)
21.10.2017 13:00 18,4 C 68 % 1014,9 hPa 0,0 l/m 5,2 km/h (1 Bft) NO 12,3 C 18,4 C 13,7 km/h (3 Bft)
21.10.2017 14:00 18,5 C 65 % 1014,7 hPa 0,0 l/m 4,7 km/h (1 Bft) O-NO 11,9 C 18,5 C 11,9 km/h (2 Bft)
21.10.2017 15:00 18,0 C 67 % 1014,6 hPa 0,0 l/m 4,0 km/h (1 Bft) O 11,9 C 18,0 C 10,9 km/h (2 Bft)
21.10.2017 16:00 17,0 C 74 % 1014,3 hPa 0,0 l/m 1,5 km/h (1 Bft) O 12,4 C 17,0 C 5,5 km/h (2 Bft)
21.10.2017 17:00 16,6 C 75 % 1013,8 hPa 0,0 l/m 0,9 km/h (0 Bft) O 12,2 C 16,6 C 3,6 km/h (1 Bft)
21.10.2017 18:00 14,8 C 79 % 1013,9 hPa 0,0 l/m 3,3 km/h (1 Bft) O-NO 11,3 C 14,8 C 9,5 km/h (2 Bft)
21.10.2017 19:00 10,8 C 86 % 1015,4 hPa 0,8 l/m 3,8 km/h (1 Bft) O 8,6 C 10,8 C 12,0 km/h (2 Bft)
21.10.2017 20:00 9,6 C 91 % 1016,3 hPa 1,0 l/m 3,0 km/h (1 Bft) O 8,2 C 9,6 C 9,9 km/h (2 Bft)
21.10.2017 21:00 9,2 C 92 % 1016,2 hPa 0,3 l/m 3,0 km/h (1 Bft) O-NO 8,0 C 9,2 C 9,4 km/h (2 Bft)
21.10.2017 22:00 9,0 C 92 % 1016,5 hPa 0,5 l/m 3,7 km/h (1 Bft) O-NO 7,8 C 9,0 C 9,7 km/h (2 Bft)
21.10.2017 23:00 8,9 C 93 % 1016,5 hPa 0,3 l/m 3,9 km/h (1 Bft) O-NO 7,8 C 8,9 C 9,6 km/h (2 Bft)
22.10.2017 00:00 8,8 C 93 % 1016,6 hPa 0,3 l/m 5,6 km/h (2 Bft) O-NO 7,7 C 8,5 C 12,9 km/h (3 Bft)
22.10.2017 01:00 8,6 C 92 % 1017,0 hPa 0,0 l/m 6,9 km/h (2 Bft) NO 7,4 C 8,0 C 15,4 km/h (3 Bft)
22.10.2017 02:00 8,8 C 91 % 1017,2 hPa 0,0 l/m 5,8 km/h (2 Bft) O-NO 7,4 C 8,6 C 15,6 km/h (3 Bft)
22.10.2017 03:00 8,7 C 91 % 1016,8 hPa 0,0 l/m 4,9 km/h (1 Bft) NO 7,2 C 8,7 C 13,0 km/h (3 Bft)
22.10.2017 04:00 8,8 C 89 % 1016,3 hPa 0,0 l/m 5,8 km/h (2 Bft) NO 7,1 C 8,4 C 16,4 km/h (3 Bft)
22.10.2017 05:00 8,7 C 88 % 1016,0 hPa 0,0 l/m 6,4 km/h (2 Bft) NO 6,7 C 8,1 C 16,0 km/h (3 Bft)
22.10.2017 06:00 8,3 C 86 % 1016,2 hPa 0,0 l/m 5,6 km/h (2 Bft) O-NO 6,1 C 8,3 C 16,1 km/h (3 Bft)
22.10.2017 07:00 8,0 C 85 % 1016,3 hPa 0,0 l/m 4,9 km/h (1 Bft) O-NO 5,6 C 7,8 C 13,7 km/h (3 Bft)
22.10.2017 08:00 7,8 C 83 % 1016,7 hPa 0,0 l/m 6,0 km/h (2 Bft) O-NO 5,1 C 7,4 C 17,9 km/h (3 Bft)
22.10.2017 09:00 8,3 C 79 % 1016,9 hPa 0,0 l/m 7,8 km/h (2 Bft) O 4,9 C 7,2 C 18,0 km/h (3 Bft)
22.10.2017 10:00 8,7 C 76 % 1017,0 hPa 0,0 l/m 8,1 km/h (2 Bft) O-NO 4,7 C 7,5 C 19,7 km/h (3 Bft)
22.10.2017 11:00 9,6 C 71 % 1017,0 hPa 0,0 l/m 8,5 km/h (2 Bft) O-NO 4,5 C 8,0 C 19,0 km/h (3 Bft)
22.10.2017 12:00 9,5 C 70 % 1016,7 hPa 0,0 l/m 10,0 km/h (2 Bft) O-NO 4,3 C 7,2 C 21,0 km/h (4 Bft)
22.10.2017 13:00 10,9 C 65 % 1016,0 hPa 0,0 l/m 10,4 km/h (2 Bft) NO 4,6 C 8,5 C 24,3 km/h (4 Bft)
22.10.2017 14:00 10,8 C 64 % 1015,7 hPa 0,0 l/m 9,2 km/h (2 Bft) O-NO 4,3 C 9,0 C 20,9 km/h (4 Bft)
22.10.2017 15:00 9,1 C 76 % 1015,7 hPa 0,0 l/m 6,6 km/h (2 Bft) O-NO 5,0 C 8,5 C 16,9 km/h (3 Bft)
22.10.2017 16:00 8,5 C 80 % 1015,8 hPa 0,0 l/m 6,9 km/h (2 Bft) NO 5,2 C 7,9 C 16,5 km/h (3 Bft)
22.10.2017 17:00 7,2 C 88 % 1016,2 hPa 1,0 l/m 4,1 km/h (1 Bft) NO 5,3 C 7,2 C 10,5 km/h (2 Bft)
22.10.2017 18:00 6,6 C 91 % 1016,9 hPa 0,8 l/m 3,3 km/h (1 Bft) O-NO 5,2 C 6,6 C 10,1 km/h (2 Bft)
22.10.2017 19:00 6,4 C 92 % 1017,6 hPa 0,0 l/m 3,3 km/h (1 Bft) O-NO 5,1 C 6,4 C 8,7 km/h (2 Bft)
22.10.2017 20:00 6,2 C 92 % 1017,9 hPa 0,5 l/m 2,8 km/h (1 Bft) NO 5,1 C 6,2 C 8,0 km/h (2 Bft)
22.10.2017 21:00 6,1 C 93 % 1018,2 hPa 1,0 l/m 4,1 km/h (1 Bft) O 5,0 C 6,1 C 12,1 km/h (2 Bft)
22.10.2017 22:00 6,1 C 93 % 1018,4 hPa 0,3 l/m 3,0 km/h (1 Bft) NO 5,0 C 6,1 C 8,7 km/h (2 Bft)
22.10.2017 23:00 5,8 C 93 % 1018,8 hPa 1,3 l/m 3,4 km/h (1 Bft) O-NO 4,8 C 5,7 C 8,1 km/h (2 Bft)
Min-Datum _ 18.10.17 16.10.17 19.10.17 - 21.10.17 - 18.10.17 18.10.17 21.10.17
_ Min-Zeit 08:05 15:15 17:15 - 17:40 - 08:00 08:05 17:40
Minimum _ 2,3 C 28 % 1012,5 hPa - 0,0 km/h (0 Bft) - 1,7 C 2,3 C 0,0 km/h (0 Bft)
Max-Datum _ 16.10.17 17.10.17 16.10.17 22.10.17 20.10.17 - 16.10.17 16.10.17 20.10.17
_ Max-Zeit 16:15 09:05 02:35 23:15 12:05 - 16:40 16:15 11:50
Maximum _ 26,9 C 98 % 1026,6 hPa 1,3 l/m 17,7 km/h
O-NO (3 Bft)
- 14,1 C 26,9 C 37,0 km/h
NO (5 Bft)
Durchschnitt _ 11,2 C 80 % 1017,8 hPa #8,4 l/m 1,8 km/h (1 Bft) NO 7,3 C 11,1 C 4,8 km/h (1 Bft)